sensor_id;sensor_type;location;lat;lon;timestamp;P1;durP1;ratioP1;P2;durP2;ratioP2
4323;SDS011;2175;51.018;6.994;2023-03-01T00:01:17;15.32;;;10.15;;
4323;SDS011;2175;51.018;6.994;2023-03-01T00:03:45;16.23;;;9.90;;
4323;SDS011;2175;51.018;6.994;2023-03-01T00:06:10;17.60;;;9.33;;
4323;SDS011;2175;51.018;6.994;2023-03-01T00:08:36;15.40;;;10.70;;
4323;SDS011;2175;51.018;6.994;2023-03-01T00:11:10;17.63;;;10.47;;
4323;SDS011;2175;51.018;6.994;2023-03-01T00:13:38;18.10;;;10.38;;
4323;SDS011;2175;51.018;6.994;2023-03-01T00:16:06;17.63;;;10.10;;
4323;SDS011;2175;51.018;6.994;2023-03-01T00:18:36;14.60;;;9.43;;
4323;SDS011;2175;51.018;6.994;2023-03-01T00:21:02;13.70;;;9.40;;
4323;SDS011;2175;51.018;6.994;2023-03-01T00:23:28;16.20;;;9.90;;
4323;SDS011;2175;51.018;6.994;2023-03-01T00:25:57;16.43;;;10.20;;
4323;SDS011;2175;51.018;6.994;2023-03-01T00:28:25;14.88;;;9.50;;
4323;SDS011;2175;51.018;6.994;2023-03-01T00:30:51;18.67;;;10.43;;
4323;SDS011;2175;51.018;6.994;2023-03-01T00:33:17;20.83;;;10.10;;
4323;SDS011;2175;51.018;6.994;2023-03-01T00:35:43;16.10;;;10.20;;
4323;SDS011;2175;51.018;6.994;2023-03-01T00:38:09;22.40;;;10.20;;
4323;SDS011;2175;51.018;6.994;2023-03-01T00:40:35;15.40;;;9.33;;
4323;SDS011;2175;51.018;6.994;2023-03-01T00:43:01;16.58;;;9.93;;
4323;SDS011;2175;51.018;6.994;2023-03-01T00:45:27;19.58;;;10.98;;
4323;SDS011;2175;51.018;6.994;2023-03-01T00:47:55;15.43;;;9.00;;
4323;SDS011;2175;51.018;6.994;2023-03-01T00:50:21;14.90;;;9.83;;
4323;SDS011;2175;51.018;6.994;2023-03-01T00:52:50;14.67;;;9.40;;
4323;SDS011;2175;51.018;6.994;2023-03-01T00:55:17;15.43;;;9.15;;
4323;SDS011;2175;51.018;6.994;2023-03-01T00:57:43;16.13;;;9.37;;
4323;SDS011;2175;51.018;6.994;2023-03-01T01:00:09;14.00;;;9.13;;
4323;SDS011;2175;51.018;6.994;2023-03-01T01:02:36;15.77;;;9.82;;
4323;SDS011;2175;51.018;6.994;2023-03-01T01:05:02;15.70;;;9.90;;
4323;SDS011;2175;51.018;6.994;2023-03-01T01:07:28;17.08;;;9.70;;
4323;SDS011;2175;51.018;6.994;2023-03-01T01:09:56;15.13;;;9.40;;
4323;SDS011;2175;51.018;6.994;2023-03-01T01:12:22;15.10;;;9.05;;
4323;SDS011;2175;51.018;6.994;2023-03-01T01:14:47;15.77;;;10.00;;
4323;SDS011;2175;51.018;6.994;2023-03-01T01:17:13;13.30;;;9.70;;
4323;SDS011;2175;51.018;6.994;2023-03-01T01:19:42;13.80;;;10.27;;
4323;SDS011;2175;51.018;6.994;2023-03-01T01:22:08;14.65;;;9.57;;
4323;SDS011;2175;51.018;6.994;2023-03-01T01:24:34;15.70;;;9.30;;
4323;SDS011;2175;51.018;6.994;2023-03-01T01:27:01;14.20;;;9.45;;
4323;SDS011;2175;51.018;6.994;2023-03-01T01:29:27;18.48;;;10.55;;
4323;SDS011;2175;51.018;6.994;2023-03-01T01:31:53;15.35;;;10.50;;
4323;SDS011;2175;51.018;6.994;2023-03-01T01:34:20;16.67;;;10.18;;
4323;SDS011;2175;51.018;6.994;2023-03-01T01:36:53;14.40;;;8.75;;
4323;SDS011;2175;51.018;6.994;2023-03-01T01:39:19;18.48;;;9.95;;
4323;SDS011;2175;51.018;6.994;2023-03-01T01:41:45;20.27;;;10.60;;
4323;SDS011;2175;51.018;6.994;2023-03-01T01:44:16;14.57;;;9.05;;
4323;SDS011;2175;51.018;6.994;2023-03-01T01:49:15;16.77;;;10.00;;
4323;SDS011;2175;51.018;6.994;2023-03-01T01:54:46;18.90;;;9.48;;
4323;SDS011;2175;51.018;6.994;2023-03-01T01:57:22;15.23;;;9.70;;
4323;SDS011;2175;51.018;6.994;2023-03-01T01:59:53;14.10;;;9.82;;
4323;SDS011;2175;51.018;6.994;2023-03-01T02:02:22;15.98;;;9.63;;
4323;SDS011;2175;51.018;6.994;2023-03-01T02:04:55;14.07;;;9.02;;
4323;SDS011;2175;51.018;6.994;2023-03-01T02:07:39;15.30;;;10.00;;
4323;SDS011;2175;51.018;6.994;2023-03-01T02:10:07;11.98;;;8.93;;
4323;SDS011;2175;51.018;6.994;2023-03-01T02:12:33;17.67;;;10.55;;
4323;SDS011;2175;51.018;6.994;2023-03-01T02:15:01;14.18;;;9.80;;
4323;SDS011;2175;51.018;6.994;2023-03-01T02:17:27;16.63;;;8.70;;
4323;SDS011;2175;51.018;6.994;2023-03-01T02:19:59;17.63;;;9.97;;
4323;SDS011;2175;51.018;6.994;2023-03-01T02:22:39;14.70;;;9.30;;
4323;SDS011;2175;51.018;6.994;2023-03-01T02:28:28;14.45;;;9.93;;
4323;SDS011;2175;51.018;6.994;2023-03-01T02:30:55;17.17;;;9.82;;
4323;SDS011;2175;51.018;6.994;2023-03-01T02:33:40;14.77;;;9.27;;
4323;SDS011;2175;51.018;6.994;2023-03-01T02:36:26;14.85;;;10.30;;
4323;SDS011;2175;51.018;6.994;2023-03-01T02:38:57;16.88;;;10.20;;
4323;SDS011;2175;51.018;6.994;2023-03-01T02:41:24;15.25;;;9.25;;
4323;SDS011;2175;51.018;6.994;2023-03-01T02:43:52;14.73;;;9.20;;
4323;SDS011;2175;51.018;6.994;2023-03-01T02:46:20;15.30;;;10.23;;
4323;SDS011;2175;51.018;6.994;2023-03-01T02:48:54;17.80;;;10.63;;
4323;SDS011;2175;51.018;6.994;2023-03-01T02:51:38;15.70;;;10.05;;
4323;SDS011;2175;51.018;6.994;2023-03-01T02:56:50;16.77;;;9.75;;
4323;SDS011;2175;51.018;6.994;2023-03-01T02:59:18;18.70;;;9.75;;
4323;SDS011;2175;51.018;6.994;2023-03-01T03:01:46;16.25;;;10.45;;
4323;SDS011;2175;51.018;6.994;2023-03-01T03:04:16;16.67;;;9.05;;
4323;SDS011;2175;51.018;6.994;2023-03-01T03:06:44;14.85;;;9.70;;
4323;SDS011;2175;51.018;6.994;2023-03-01T03:09:11;16.15;;;10.30;;
4323;SDS011;2175;51.018;6.994;2023-03-01T03:11:38;15.07;;;9.40;;
4323;SDS011;2175;51.018;6.994;2023-03-01T03:14:08;17.55;;;9.32;;
4323;SDS011;2175;51.018;6.994;2023-03-01T03:16:47;14.02;;;10.02;;
4323;SDS011;2175;51.018;6.994;2023-03-01T03:19:15;17.50;;;9.60;;
4323;SDS011;2175;51.018;6.994;2023-03-01T03:21:44;20.05;;;10.93;;
4323;SDS011;2175;51.018;6.994;2023-03-01T03:24:10;15.35;;;10.07;;
4323;SDS011;2175;51.018;6.994;2023-03-01T03:26:36;15.20;;;10.17;;
4323;SDS011;2175;51.018;6.994;2023-03-01T03:29:01;15.87;;;9.33;;
4323;SDS011;2175;51.018;6.994;2023-03-01T03:31:27;14.67;;;9.70;;
4323;SDS011;2175;51.018;6.994;2023-03-01T03:33:53;16.08;;;10.60;;
4323;SDS011;2175;51.018;6.994;2023-03-01T03:36:20;14.65;;;9.95;;
4323;SDS011;2175;51.018;6.994;2023-03-01T03:38:48;18.40;;;10.82;;
4323;SDS011;2175;51.018;6.994;2023-03-01T03:41:14;18.13;;;10.73;;
4323;SDS011;2175;51.018;6.994;2023-03-01T03:43:41;15.90;;;10.63;;
4323;SDS011;2175;51.018;6.994;2023-03-01T03:46:08;16.40;;;9.80;;
4323;SDS011;2175;51.018;6.994;2023-03-01T03:48:36;17.08;;;11.18;;
4323;SDS011;2175;51.018;6.994;2023-03-01T03:51:03;14.13;;;9.30;;
4323;SDS011;2175;51.018;6.994;2023-03-01T03:53:32;20.65;;;10.95;;
4323;SDS011;2175;51.018;6.994;2023-03-01T03:55:58;16.75;;;11.40;;
4323;SDS011;2175;51.018;6.994;2023-03-01T03:58:24;19.52;;;12.00;;
4323;SDS011;2175;51.018;6.994;2023-03-01T04:00:52;19.98;;;11.35;;
4323;SDS011;2175;51.018;6.994;2023-03-01T04:03:21;19.48;;;11.70;;
4323;SDS011;2175;51.018;6.994;2023-03-01T04:05:48;21.02;;;11.70;;
4323;SDS011;2175;51.018;6.994;2023-03-01T04:08:19;22.90;;;10.82;;
4323;SDS011;2175;51.018;6.994;2023-03-01T04:10:46;24.90;;;11.82;;
4323;SDS011;2175;51.018;6.994;2023-03-01T04:13:18;19.50;;;12.13;;
4323;SDS011;2175;51.018;6.994;2023-03-01T04:15:46;17.45;;;11.45;;
4323;SDS011;2175;51.018;6.994;2023-03-01T04:18:16;19.23;;;11.00;;
4323;SDS011;2175;51.018;6.994;2023-03-01T04:20:44;22.67;;;11.70;;
4323;SDS011;2175;51.018;6.994;2023-03-01T04:23:13;20.75;;;12.40;;
4323;SDS011;2175;51.018;6.994;2023-03-01T04:28:10;16.73;;;11.23;;
4323;SDS011;2175;51.018;6.994;2023-03-01T04:30:36;18.20;;;12.52;;
4323;SDS011;2175;51.018;6.994;2023-03-01T04:33:06;19.27;;;12.32;;
4323;SDS011;2175;51.018;6.994;2023-03-01T04:35:33;20.27;;;12.25;;
4323;SDS011;2175;51.018;6.994;2023-03-01T04:38:00;19.00;;;12.70;;
4323;SDS011;2175;51.018;6.994;2023-03-01T04:40:26;20.67;;;12.10;;
4323;SDS011;2175;51.018;6.994;2023-03-01T04:42:52;20.73;;;12.77;;
4323;SDS011;2175;51.018;6.994;2023-03-01T04:45:18;17.53;;;12.30;;
4323;SDS011;2175;51.018;6.994;2023-03-01T04:47:44;21.43;;;13.60;;
4323;SDS011;2175;51.018;6.994;2023-03-01T04:50:11;18.55;;;11.55;;
4323;SDS011;2175;51.018;6.994;2023-03-01T04:52:39;21.60;;;12.57;;
4323;SDS011;2175;51.018;6.994;2023-03-01T04:55:05;18.17;;;12.70;;
4323;SDS011;2175;51.018;6.994;2023-03-01T04:57:31;19.60;;;12.60;;
4323;SDS011;2175;51.018;6.994;2023-03-01T04:59:57;21.57;;;13.60;;
4323;SDS011;2175;51.018;6.994;2023-03-01T05:02:22;19.67;;;12.03;;
4323;SDS011;2175;51.018;6.994;2023-03-01T05:04:48;19.00;;;12.77;;
4323;SDS011;2175;51.018;6.994;2023-03-01T05:07:14;19.13;;;12.40;;
4323;SDS011;2175;51.018;6.994;2023-03-01T05:09:47;20.83;;;12.68;;
4323;SDS011;2175;51.018;6.994;2023-03-01T05:12:13;20.83;;;12.77;;
4323;SDS011;2175;51.018;6.994;2023-03-01T05:14:39;20.45;;;11.82;;
4323;SDS011;2175;51.018;6.994;2023-03-01T05:17:06;24.80;;;12.52;;
4323;SDS011;2175;51.018;6.994;2023-03-01T05:19:32;19.23;;;12.70;;
4323;SDS011;2175;51.018;6.994;2023-03-01T05:21:58;20.90;;;11.45;;
4323;SDS011;2175;51.018;6.994;2023-03-01T05:24:27;16.98;;;11.85;;
4323;SDS011;2175;51.018;6.994;2023-03-01T05:26:54;25.25;;;12.35;;
4323;SDS011;2175;51.018;6.994;2023-03-01T05:29:20;26.43;;;13.40;;
4323;SDS011;2175;51.018;6.994;2023-03-01T05:31:59;20.42;;;12.10;;
4323;SDS011;2175;51.018;6.994;2023-03-01T05:34:30;20.05;;;12.43;;
4323;SDS011;2175;51.018;6.994;2023-03-01T05:36:58;20.60;;;12.43;;
4323;SDS011;2175;51.018;6.994;2023-03-01T05:39:26;24.20;;;12.75;;
4323;SDS011;2175;51.018;6.994;2023-03-01T05:41:53;22.02;;;12.88;;
4323;SDS011;2175;51.018;6.994;2023-03-01T05:44:20;19.80;;;12.85;;
4323;SDS011;2175;51.018;6.994;2023-03-01T05:46:46;21.70;;;13.10;;
4323;SDS011;2175;51.018;6.994;2023-03-01T05:49:12;17.23;;;11.33;;
4323;SDS011;2175;51.018;6.994;2023-03-01T05:51:42;24.95;;;12.35;;
4323;SDS011;2175;51.018;6.994;2023-03-01T05:54:13;20.00;;;13.52;;
4323;SDS011;2175;51.018;6.994;2023-03-01T05:56:38;20.65;;;13.20;;
4323;SDS011;2175;51.018;6.994;2023-03-01T05:59:04;27.33;;;13.43;;
4323;SDS011;2175;51.018;6.994;2023-03-01T06:01:30;26.73;;;13.05;;
4323;SDS011;2175;51.018;6.994;2023-03-01T06:03:56;33.58;;;13.32;;
4323;SDS011;2175;51.018;6.994;2023-03-01T06:06:22;27.63;;;13.20;;
4323;SDS011;2175;51.018;6.994;2023-03-01T06:08:49;20.52;;;12.90;;
4323;SDS011;2175;51.018;6.994;2023-03-01T06:11:15;21.27;;;12.60;;
4323;SDS011;2175;51.018;6.994;2023-03-01T06:13:42;24.13;;;12.73;;
4323;SDS011;2175;51.018;6.994;2023-03-01T06:16:08;21.42;;;12.20;;
4323;SDS011;2175;51.018;6.994;2023-03-01T06:18:34;22.25;;;13.10;;
4323;SDS011;2175;51.018;6.994;2023-03-01T06:20:59;19.00;;;13.20;;
4323;SDS011;2175;51.018;6.994;2023-03-01T06:23:25;20.80;;;13.70;;
4323;SDS011;2175;51.018;6.994;2023-03-01T06:25:51;18.07;;;12.40;;
4323;SDS011;2175;51.018;6.994;2023-03-01T06:28:17;21.45;;;13.80;;
4323;SDS011;2175;51.018;6.994;2023-03-01T06:30:43;23.23;;;13.83;;
4323;SDS011;2175;51.018;6.994;2023-03-01T06:33:08;22.20;;;12.80;;
4323;SDS011;2175;51.018;6.994;2023-03-01T06:35:34;31.43;;;13.70;;
4323;SDS011;2175;51.018;6.994;2023-03-01T06:38:00;22.90;;;14.70;;
4323;SDS011;2175;51.018;6.994;2023-03-01T06:40:27;27.27;;;14.48;;
4323;SDS011;2175;51.018;6.994;2023-03-01T06:42:53;31.83;;;12.98;;
4323;SDS011;2175;51.018;6.994;2023-03-01T06:45:20;28.63;;;13.50;;
4323;SDS011;2175;51.018;6.994;2023-03-01T06:47:46;29.75;;;14.13;;
4323;SDS011;2175;51.018;6.994;2023-03-01T06:50:12;18.95;;;13.00;;
4323;SDS011;2175;51.018;6.994;2023-03-01T06:52:39;22.98;;;11.90;;
4323;SDS011;2175;51.018;6.994;2023-03-01T06:55:05;26.13;;;14.53;;
4323;SDS011;2175;51.018;6.994;2023-03-01T06:57:31;25.77;;;14.07;;
4323;SDS011;2175;51.018;6.994;2023-03-01T06:59:57;25.75;;;14.25;;
4323;SDS011;2175;51.018;6.994;2023-03-01T07:02:23;26.60;;;14.30;;
4323;SDS011;2175;51.018;6.994;2023-03-01T07:04:49;22.88;;;13.82;;
4323;SDS011;2175;51.018;6.994;2023-03-01T07:07:15;26.20;;;13.93;;
4323;SDS011;2175;51.018;6.994;2023-03-01T07:09:43;30.02;;;15.85;;
4323;SDS011;2175;51.018;6.994;2023-03-01T07:12:11;22.17;;;13.93;;
4323;SDS011;2175;51.018;6.994;2023-03-01T07:14:37;26.07;;;15.73;;
4323;SDS011;2175;51.018;6.994;2023-03-01T07:17:03;23.20;;;14.87;;
4323;SDS011;2175;51.018;6.994;2023-03-01T07:19:28;32.03;;;15.57;;
4323;SDS011;2175;51.018;6.994;2023-03-01T07:21:54;26.63;;;15.90;;
4323;SDS011;2175;51.018;6.994;2023-03-01T07:24:20;25.35;;;15.40;;
4323;SDS011;2175;51.018;6.994;2023-03-01T07:26:49;25.90;;;16.38;;
4323;SDS011;2175;51.018;6.994;2023-03-01T07:29:15;28.35;;;15.73;;
4323;SDS011;2175;51.018;6.994;2023-03-01T07:31:41;26.50;;;15.77;;
4323;SDS011;2175;51.018;6.994;2023-03-01T07:34:06;23.93;;;16.10;;
4323;SDS011;2175;51.018;6.994;2023-03-01T07:36:32;30.83;;;16.90;;
4323;SDS011;2175;51.018;6.994;2023-03-01T07:38:58;31.30;;;15.30;;
4323;SDS011;2175;51.018;6.994;2023-03-01T07:41:24;28.33;;;16.63;;
4323;SDS011;2175;51.018;6.994;2023-03-01T07:43:49;27.10;;;16.47;;
4323;SDS011;2175;51.018;6.994;2023-03-01T07:46:15;24.53;;;15.50;;
4323;SDS011;2175;51.018;6.994;2023-03-01T07:48:41;25.67;;;16.43;;
4323;SDS011;2175;51.018;6.994;2023-03-01T07:51:06;27.20;;;16.00;;
4323;SDS011;2175;51.018;6.994;2023-03-01T07:53:32;30.27;;;15.90;;
4323;SDS011;2175;51.018;6.994;2023-03-01T07:56:02;32.60;;;15.90;;
4323;SDS011;2175;51.018;6.994;2023-03-01T07:58:38;27.25;;;16.45;;
4323;SDS011;2175;51.018;6.994;2023-03-01T08:01:07;25.75;;;16.00;;
4323;SDS011;2175;51.018;6.994;2023-03-01T08:03:36;28.17;;;17.17;;
4323;SDS011;2175;51.018;6.994;2023-03-01T08:06:03;28.90;;;16.98;;
4323;SDS011;2175;51.018;6.994;2023-03-01T08:08:31;25.13;;;16.70;;
4323;SDS011;2175;51.018;6.994;2023-03-01T08:10:57;22.73;;;16.90;;
4323;SDS011;2175;51.018;6.994;2023-03-01T08:13:26;27.30;;;16.70;;
4323;SDS011;2175;51.018;6.994;2023-03-01T08:15:52;28.75;;;17.17;;
4323;SDS011;2175;51.018;6.994;2023-03-01T08:18:18;26.40;;;15.87;;
4323;SDS011;2175;51.018;6.994;2023-03-01T08:20:46;27.45;;;16.63;;
4323;SDS011;2175;51.018;6.994;2023-03-01T08:23:12;23.92;;;15.95;;
4323;SDS011;2175;51.018;6.994;2023-03-01T08:25:38;24.90;;;15.33;;
4323;SDS011;2175;51.018;6.994;2023-03-01T08:28:04;20.65;;;14.25;;
4323;SDS011;2175;51.018;6.994;2023-03-01T08:30:30;26.05;;;16.00;;
4323;SDS011;2175;51.018;6.994;2023-03-01T08:32:56;24.98;;;15.73;;
4323;SDS011;2175;51.018;6.994;2023-03-01T08:35:22;23.80;;;16.30;;
4323;SDS011;2175;51.018;6.994;2023-03-01T08:37:48;27.42;;;14.70;;
4323;SDS011;2175;51.018;6.994;2023-03-01T08:40:14;23.07;;;14.80;;
4323;SDS011;2175;51.018;6.994;2023-03-01T08:42:40;22.93;;;14.60;;
4323;SDS011;2175;51.018;6.994;2023-03-01T08:45:07;26.45;;;14.75;;
4323;SDS011;2175;51.018;6.994;2023-03-01T08:47:34;19.92;;;13.43;;
4323;SDS011;2175;51.018;6.994;2023-03-01T08:50:00;24.70;;;13.83;;
4323;SDS011;2175;51.018;6.994;2023-03-01T08:52:25;19.90;;;12.87;;
4323;SDS011;2175;51.018;6.994;2023-03-01T08:54:51;22.20;;;13.03;;
4323;SDS011;2175;51.018;6.994;2023-03-01T08:57:17;19.57;;;13.27;;
4323;SDS011;2175;51.018;6.994;2023-03-01T08:59:42;17.60;;;12.60;;
4323;SDS011;2175;51.018;6.994;2023-03-01T09:02:10;20.40;;;12.83;;
4323;SDS011;2175;51.018;6.994;2023-03-01T09:04:38;21.10;;;12.57;;
4323;SDS011;2175;51.018;6.994;2023-03-01T09:07:04;15.47;;;11.57;;
4323;SDS011;2175;51.018;6.994;2023-03-01T09:09:30;16.50;;;11.03;;
4323;SDS011;2175;51.018;6.994;2023-03-01T09:11:55;17.63;;;11.37;;
4323;SDS011;2175;51.018;6.994;2023-03-01T09:14:21;16.27;;;10.73;;
4323;SDS011;2175;51.018;6.994;2023-03-01T09:16:46;15.70;;;10.53;;
4323;SDS011;2175;51.018;6.994;2023-03-01T09:19:12;16.80;;;11.20;;
4323;SDS011;2175;51.018;6.994;2023-03-01T09:21:38;15.53;;;10.30;;
4323;SDS011;2175;51.018;6.994;2023-03-01T09:24:04;17.57;;;10.20;;
4323;SDS011;2175;51.018;6.994;2023-03-01T09:26:30;17.50;;;12.07;;
4323;SDS011;2175;51.018;6.994;2023-03-01T09:28:56;18.17;;;11.70;;
4323;SDS011;2175;51.018;6.994;2023-03-01T09:31:22;18.67;;;11.00;;
4323;SDS011;2175;51.018;6.994;2023-03-01T09:33:50;19.50;;;11.77;;
4323;SDS011;2175;51.018;6.994;2023-03-01T09:36:18;17.47;;;11.00;;
4323;SDS011;2175;51.018;6.994;2023-03-01T09:38:46;15.20;;;10.23;;
4323;SDS011;2175;51.018;6.994;2023-03-01T09:44:20;16.77;;;10.90;;
4323;SDS011;2175;51.018;6.994;2023-03-01T09:46:46;15.40;;;10.93;;
4323;SDS011;2175;51.018;6.994;2023-03-01T09:49:14;14.83;;;10.53;;
4323;SDS011;2175;51.018;6.994;2023-03-01T09:51:43;17.67;;;11.47;;
4323;SDS011;2175;51.018;6.994;2023-03-01T09:54:40;14.83;;;11.33;;
4323;SDS011;2175;51.018;6.994;2023-03-01T09:59:49;17.10;;;11.00;;
4323;SDS011;2175;51.018;6.994;2023-03-01T10:11:04;20.83;;;11.90;;
4323;SDS011;2175;51.018;6.994;2023-03-01T10:13:48;20.53;;;12.53;;
4323;SDS011;2175;51.018;6.994;2023-03-01T10:19:12;18.50;;;12.53;;
4323;SDS011;2175;51.018;6.994;2023-03-01T10:21:45;18.70;;;11.90;;
4323;SDS011;2175;51.018;6.994;2023-03-01T10:24:15;18.50;;;11.57;;
4323;SDS011;2175;51.018;6.994;2023-03-01T10:26:54;18.77;;;12.23;;
4323;SDS011;2175;51.018;6.994;2023-03-01T10:29:23;27.97;;;12.70;;
4323;SDS011;2175;51.018;6.994;2023-03-01T10:32:04;21.77;;;13.00;;
4323;SDS011;2175;51.018;6.994;2023-03-01T10:34:33;16.10;;;11.67;;
4323;SDS011;2175;51.018;6.994;2023-03-01T10:37:04;14.50;;;10.77;;
4323;SDS011;2175;51.018;6.994;2023-03-01T10:39:34;19.00;;;11.93;;
4323;SDS011;2175;51.018;6.994;2023-03-01T10:45:30;19.93;;;12.93;;
4323;SDS011;2175;51.018;6.994;2023-03-01T10:50:42;16.90;;;11.77;;
4323;SDS011;2175;51.018;6.994;2023-03-01T10:53:19;19.60;;;12.03;;
4323;SDS011;2175;51.018;6.994;2023-03-01T10:55:56;16.43;;;12.30;;
4323;SDS011;2175;51.018;6.994;2023-03-01T10:58:23;18.10;;;11.97;;
4323;SDS011;2175;51.018;6.994;2023-03-01T11:00:56;18.90;;;12.47;;
4323;SDS011;2175;51.018;6.994;2023-03-01T11:03:24;15.97;;;11.33;;
4323;SDS011;2175;51.018;6.994;2023-03-01T11:08:42;20.47;;;12.10;;
4323;SDS011;2175;51.018;6.994;2023-03-01T11:13:57;15.90;;;11.27;;
4323;SDS011;2175;51.018;6.994;2023-03-01T11:16:24;18.60;;;11.50;;
4323;SDS011;2175;51.018;6.994;2023-03-01T11:21:34;15.10;;;11.03;;
4323;SDS011;2175;51.018;6.994;2023-03-01T11:24:06;17.33;;;11.43;;
4323;SDS011;2175;51.018;6.994;2023-03-01T11:26:47;23.93;;;12.23;;
4323;SDS011;2175;51.018;6.994;2023-03-01T11:32:05;17.53;;;11.50;;
4323;SDS011;2175;51.018;6.994;2023-03-01T11:40:24;15.80;;;10.77;;
4323;SDS011;2175;51.018;6.994;2023-03-01T11:57:07;16.93;;;11.27;;
4323;SDS011;2175;51.018;6.994;2023-03-01T11:59:45;19.50;;;12.50;;
4323;SDS011;2175;51.018;6.994;2023-03-01T12:02:53;18.93;;;11.13;;
4323;SDS011;2175;51.018;6.994;2023-03-01T12:08:16;17.13;;;10.87;;
4323;SDS011;2175;51.018;6.994;2023-03-01T12:33:17;19.30;;;10.80;;
4323;SDS011;2175;51.018;6.994;2023-03-01T12:38:42;18.50;;;12.10;;
4323;SDS011;2175;51.018;6.994;2023-03-01T12:49:15;16.47;;;10.20;;
4323;SDS011;2175;51.018;6.994;2023-03-01T12:51:50;14.10;;;10.67;;
4323;SDS011;2175;51.018;6.994;2023-03-01T12:54:35;12.30;;;9.30;;
4323;SDS011;2175;51.018;6.994;2023-03-01T12:59:59;15.70;;;11.13;;
4323;SDS011;2175;51.018;6.994;2023-03-01T13:08:37;17.13;;;10.50;;
4323;SDS011;2175;51.018;6.994;2023-03-01T13:11:20;22.00;;;10.20;;
4323;SDS011;2175;51.018;6.994;2023-03-01T13:13:47;17.30;;;9.47;;
4323;SDS011;2175;51.018;6.994;2023-03-01T13:16:21;15.30;;;10.23;;
4323;SDS011;2175;51.018;6.994;2023-03-01T13:19:05;17.37;;;10.23;;
4323;SDS011;2175;51.018;6.994;2023-03-01T13:21:43;20.73;;;10.57;;
4323;SDS011;2175;51.018;6.994;2023-03-01T13:27:09;18.23;;;10.50;;
4323;SDS011;2175;51.018;6.994;2023-03-01T13:29:54;14.83;;;9.87;;
4323;SDS011;2175;51.018;6.994;2023-03-01T13:32:28;14.03;;;9.70;;
4323;SDS011;2175;51.018;6.994;2023-03-01T13:34:59;20.63;;;9.50;;
4323;SDS011;2175;51.018;6.994;2023-03-01T13:37:45;21.33;;;10.27;;
4323;SDS011;2175;51.018;6.994;2023-03-01T13:42:48;12.13;;;9.17;;
4323;SDS011;2175;51.018;6.994;2023-03-01T13:48:18;16.93;;;9.73;;
4323;SDS011;2175;51.018;6.994;2023-03-01T13:51:07;13.93;;;8.70;;
4323;SDS011;2175;51.018;6.994;2023-03-01T13:53:36;14.67;;;9.63;;
4323;SDS011;2175;51.018;6.994;2023-03-01T13:56:32;12.47;;;8.33;;
4323;SDS011;2175;51.018;6.994;2023-03-01T13:58:59;14.50;;;9.33;;
4323;SDS011;2175;51.018;6.994;2023-03-01T14:01:39;13.50;;;8.57;;
4323;SDS011;2175;51.018;6.994;2023-03-01T14:06:50;14.37;;;9.00;;
4323;SDS011;2175;51.018;6.994;2023-03-01T14:09:20;13.13;;;8.80;;
4323;SDS011;2175;51.018;6.994;2023-03-01T14:19:46;15.70;;;9.47;;
4323;SDS011;2175;51.018;6.994;2023-03-01T14:22:20;13.90;;;9.13;;
4323;SDS011;2175;51.018;6.994;2023-03-01T14:24:48;16.50;;;8.93;;
4323;SDS011;2175;51.018;6.994;2023-03-01T14:27:17;16.43;;;9.60;;
4323;SDS011;2175;51.018;6.994;2023-03-01T14:29:45;14.60;;;10.30;;
4323;SDS011;2175;51.018;6.994;2023-03-01T14:32:21;24.10;;;10.00;;
4323;SDS011;2175;51.018;6.994;2023-03-01T14:34:51;18.53;;;9.30;;
4323;SDS011;2175;51.018;6.994;2023-03-01T14:39:46;24.17;;;10.57;;
4323;SDS011;2175;51.018;6.994;2023-03-01T14:42:12;15.20;;;10.03;;
4323;SDS011;2175;51.018;6.994;2023-03-01T14:44:41;12.80;;;9.23;;
4323;SDS011;2175;51.018;6.994;2023-03-01T14:47:11;14.47;;;10.10;;
4323;SDS011;2175;51.018;6.994;2023-03-01T14:49:41;14.47;;;9.63;;
4323;SDS011;2175;51.018;6.994;2023-03-01T14:52:17;16.33;;;9.80;;
4323;SDS011;2175;51.018;6.994;2023-03-01T14:54:47;13.13;;;9.70;;
4323;SDS011;2175;51.018;6.994;2023-03-01T14:59:44;16.77;;;10.37;;
4323;SDS011;2175;51.018;6.994;2023-03-01T15:02:13;16.70;;;10.10;;
4323;SDS011;2175;51.018;6.994;2023-03-01T15:04:43;16.73;;;9.73;;
4323;SDS011;2175;51.018;6.994;2023-03-01T15:07:12;21.00;;;10.80;;
4323;SDS011;2175;51.018;6.994;2023-03-01T15:09:39;15.97;;;10.03;;
4323;SDS011;2175;51.018;6.994;2023-03-01T15:14:54;17.37;;;9.43;;
4323;SDS011;2175;51.018;6.994;2023-03-01T15:17:42;13.60;;;9.77;;
4323;SDS011;2175;51.018;6.994;2023-03-01T15:20:15;14.80;;;9.70;;
4323;SDS011;2175;51.018;6.994;2023-03-01T15:22:47;15.10;;;8.70;;
4323;SDS011;2175;51.018;6.994;2023-03-01T15:25:24;16.13;;;9.70;;
4323;SDS011;2175;51.018;6.994;2023-03-01T15:27:52;13.70;;;8.60;;
4323;SDS011;2175;51.018;6.994;2023-03-01T15:30:53;16.60;;;9.20;;
4323;SDS011;2175;51.018;6.994;2023-03-01T15:36:00;22.80;;;8.50;;
4323;SDS011;2175;51.018;6.994;2023-03-01T15:40:55;12.80;;;8.63;;
4323;SDS011;2175;51.018;6.994;2023-03-01T15:51:59;12.40;;;8.17;;
4323;SDS011;2175;51.018;6.994;2023-03-01T15:54:26;14.03;;;8.50;;
4323;SDS011;2175;51.018;6.994;2023-03-01T15:56:53;15.30;;;9.50;;
4323;SDS011;2175;51.018;6.994;2023-03-01T15:59:19;17.43;;;9.00;;
4323;SDS011;2175;51.018;6.994;2023-03-01T16:01:46;16.23;;;8.87;;
4323;SDS011;2175;51.018;6.994;2023-03-01T16:04:14;14.60;;;8.60;;
4323;SDS011;2175;51.018;6.994;2023-03-01T16:06:46;13.80;;;8.47;;
4323;SDS011;2175;51.018;6.994;2023-03-01T16:09:19;20.13;;;8.90;;
4323;SDS011;2175;51.018;6.994;2023-03-01T16:11:49;17.93;;;8.20;;
4323;SDS011;2175;51.018;6.994;2023-03-01T16:14:15;14.93;;;8.40;;
4323;SDS011;2175;51.018;6.994;2023-03-01T16:16:41;12.97;;;8.87;;
4323;SDS011;2175;51.018;6.994;2023-03-01T16:19:07;11.73;;;8.20;;
4323;SDS011;2175;51.018;6.994;2023-03-01T16:21:33;17.67;;;8.33;;
4323;SDS011;2175;51.018;6.994;2023-03-01T16:23:58;14.50;;;8.07;;
4323;SDS011;2175;51.018;6.994;2023-03-01T16:26:24;13.00;;;8.43;;
4323;SDS011;2175;51.018;6.994;2023-03-01T16:28:50;14.80;;;8.73;;
4323;SDS011;2175;51.018;6.994;2023-03-01T16:31:20;19.40;;;8.30;;
4323;SDS011;2175;51.018;6.994;2023-03-01T16:33:46;15.67;;;8.30;;
4323;SDS011;2175;51.018;6.994;2023-03-01T16:36:14;12.70;;;8.13;;
4323;SDS011;2175;51.018;6.994;2023-03-01T16:38:41;13.00;;;7.70;;
4323;SDS011;2175;51.018;6.994;2023-03-01T16:41:09;13.00;;;8.13;;
4323;SDS011;2175;51.018;6.994;2023-03-01T16:43:38;14.23;;;8.60;;
4323;SDS011;2175;51.018;6.994;2023-03-01T16:46:12;15.60;;;8.30;;
4323;SDS011;2175;51.018;6.994;2023-03-01T16:48:41;15.60;;;7.97;;
4323;SDS011;2175;51.018;6.994;2023-03-01T16:51:07;14.60;;;8.50;;
4323;SDS011;2175;51.018;6.994;2023-03-01T16:53:34;18.00;;;8.80;;
4323;SDS011;2175;51.018;6.994;2023-03-01T16:56:04;14.23;;;7.93;;
4323;SDS011;2175;51.018;6.994;2023-03-01T16:58:31;10.83;;;7.23;;
4323;SDS011;2175;51.018;6.994;2023-03-01T17:01:02;12.93;;;7.90;;
4323;SDS011;2175;51.018;6.994;2023-03-01T17:03:38;12.70;;;7.97;;
4323;SDS011;2175;51.018;6.994;2023-03-01T17:06:07;12.53;;;8.23;;
4323;SDS011;2175;51.018;6.994;2023-03-01T17:08:35;13.43;;;8.13;;
4323;SDS011;2175;51.018;6.994;2023-03-01T17:11:04;12.13;;;8.47;;
4323;SDS011;2175;51.018;6.994;2023-03-01T17:13:38;15.93;;;9.27;;
4323;SDS011;2175;51.018;6.994;2023-03-01T17:16:06;16.40;;;8.57;;
4323;SDS011;2175;51.018;6.994;2023-03-01T17:18:33;12.77;;;8.53;;
4323;SDS011;2175;51.018;6.994;2023-03-01T17:21:00;20.10;;;9.77;;
4323;SDS011;2175;51.018;6.994;2023-03-01T17:23:26;13.97;;;8.77;;
4323;SDS011;2175;51.018;6.994;2023-03-01T17:25:53;15.93;;;8.50;;
4323;SDS011;2175;51.018;6.994;2023-03-01T17:28:20;16.40;;;9.10;;
4323;SDS011;2175;51.018;6.994;2023-03-01T17:30:48;12.10;;;8.33;;
4323;SDS011;2175;51.018;6.994;2023-03-01T17:33:16;12.73;;;8.37;;
4323;SDS011;2175;51.018;6.994;2023-03-01T17:35:42;14.87;;;8.67;;
4323;SDS011;2175;51.018;6.994;2023-03-01T17:38:13;14.30;;;8.70;;